sensor_id;sensor_type;location;lat;lon;timestamp;temperature;humidity
64396;DHT22;50717;53.360;6.290;2023-02-05T00:00:31;5.30;99.90
64396;DHT22;50717;53.360;6.290;2023-02-05T00:02:56;5.10;99.90
64396;DHT22;50717;53.360;6.290;2023-02-05T00:05:22;5.30;99.90
64396;DHT22;50717;53.360;6.290;2023-02-05T00:07:48;5.50;99.90
64396;DHT22;50717;53.360;6.290;2023-02-05T00:10:14;5.30;99.90
64396;DHT22;50717;53.360;6.290;2023-02-05T00:12:39;5.30;99.90
64396;DHT22;50717;53.360;6.290;2023-02-05T00:15:05;5.00;99.90
64396;DHT22;50717;53.360;6.290;2023-02-05T00:17:33;5.20;99.90
64396;DHT22;50717;53.360;6.290;2023-02-05T00:19:58;5.40;99.90
64396;DHT22;50717;53.360;6.290;2023-02-05T00:22:24;5.40;99.90
64396;DHT22;50717;53.360;6.290;2023-02-05T00:24:50;5.00;99.90
64396;DHT22;50717;53.360;6.290;2023-02-05T00:27:15;5.30;99.90
64396;DHT22;50717;53.360;6.290;2023-02-05T00:29:41;4.90;99.90
64396;DHT22;50717;53.360;6.290;2023-02-05T00:32:07;5.40;99.90
64396;DHT22;50717;53.360;6.290;2023-02-05T00:34:32;5.30;99.90
64396;DHT22;50717;53.360;6.290;2023-02-05T00:36:58;5.60;99.90
64396;DHT22;50717;53.360;6.290;2023-02-05T00:39:24;7.10;99.90
64396;DHT22;50717;53.360;6.290;2023-02-05T00:41:49;5.50;99.90
64396;DHT22;50717;53.360;6.290;2023-02-05T00:44:15;5.30;99.90
64396;DHT22;50717;53.360;6.290;2023-02-05T00:46:41;5.30;99.90
64396;DHT22;50717;53.360;6.290;2023-02-05T00:49:06;5.60;99.90
64396;DHT22;50717;53.360;6.290;2023-02-05T00:53:58;5.30;99.90
64396;DHT22;50717;53.360;6.290;2023-02-05T00:56:23;5.50;99.90
64396;DHT22;50717;53.360;6.290;2023-02-05T00:58:49;5.40;99.90
64396;DHT22;50717;53.360;6.290;2023-02-05T01:01:16;5.00;99.90
64396;DHT22;50717;53.360;6.290;2023-02-05T01:03:43;5.50;99.90
64396;DHT22;50717;53.360;6.290;2023-02-05T01:06:09;5.00;99.90
64396;DHT22;50717;53.360;6.290;2023-02-05T01:08:35;5.50;99.90
64396;DHT22;50717;53.360;6.290;2023-02-05T01:11:04;5.00;99.90
64396;DHT22;50717;53.360;6.290;2023-02-05T01:13:30;5.30;99.90
64396;DHT22;50717;53.360;6.290;2023-02-05T01:15:56;5.30;99.90
64396;DHT22;50717;53.360;6.290;2023-02-05T01:18:21;5.30;99.90
64396;DHT22;50717;53.360;6.290;2023-02-05T01:20:47;5.60;99.90
64396;DHT22;50717;53.360;6.290;2023-02-05T01:23:13;5.20;99.90
64396;DHT22;50717;53.360;6.290;2023-02-05T01:25:38;5.80;99.90
64396;DHT22;50717;53.360;6.290;2023-02-05T01:28:04;5.60;99.90
64396;DHT22;50717;53.360;6.290;2023-02-05T01:30:31;5.70;99.90
64396;DHT22;50717;53.360;6.290;2023-02-05T01:32:56;5.40;99.90
64396;DHT22;50717;53.360;6.290;2023-02-05T01:35:22;5.60;99.90
64396;DHT22;50717;53.360;6.290;2023-02-05T01:37:48;5.50;99.90
64396;DHT22;50717;53.360;6.290;2023-02-05T01:40:15;5.10;99.90
64396;DHT22;50717;53.360;6.290;2023-02-05T01:42:41;5.50;99.90
64396;DHT22;50717;53.360;6.290;2023-02-05T01:48:25;5.40;99.90
64396;DHT22;50717;53.360;6.290;2023-02-05T01:50:55;5.20;99.90
64396;DHT22;50717;53.360;6.290;2023-02-05T01:53:29;5.70;99.90
64396;DHT22;50717;53.360;6.290;2023-02-05T01:55:56;5.70;99.90
64396;DHT22;50717;53.360;6.290;2023-02-05T01:58:25;5.70;99.90
64396;DHT22;50717;53.360;6.290;2023-02-05T02:00:51;5.30;99.90
64396;DHT22;50717;53.360;6.290;2023-02-05T02:03:17;5.70;99.90
64396;DHT22;50717;53.360;6.290;2023-02-05T02:05:42;5.70;99.90
64396;DHT22;50717;53.360;6.290;2023-02-05T02:08:12;6.10;99.90
64396;DHT22;50717;53.360;6.290;2023-02-05T02:10:38;5.40;99.90
64396;DHT22;50717;53.360;6.290;2023-02-05T02:13:05;5.80;99.90
64396;DHT22;50717;53.360;6.290;2023-02-05T02:15:31;6.10;99.90
64396;DHT22;50717;53.360;6.290;2023-02-05T02:18:00;5.50;99.90
64396;DHT22;50717;53.360;6.290;2023-02-05T02:21:00;5.50;99.90
64396;DHT22;50717;53.360;6.290;2023-02-05T02:27:04;6.30;99.90
64396;DHT22;50717;53.360;6.290;2023-02-05T02:29:46;5.20;99.90
64396;DHT22;50717;53.360;6.290;2023-02-05T02:32:20;5.60;99.90
64396;DHT22;50717;53.360;6.290;2023-02-05T02:34:53;5.30;99.90
64396;DHT22;50717;53.360;6.290;2023-02-05T02:37:32;5.40;99.90
64396;DHT22;50717;53.360;6.290;2023-02-05T02:40:09;6.10;99.90
64396;DHT22;50717;53.360;6.290;2023-02-05T02:42:46;5.70;99.90
64396;DHT22;50717;53.360;6.290;2023-02-05T02:45:12;5.90;99.90
64396;DHT22;50717;53.360;6.290;2023-02-05T02:47:46;6.10;99.90
64396;DHT22;50717;53.360;6.290;2023-02-05T02:50:18;5.50;99.90
64396;DHT22;50717;53.360;6.290;2023-02-05T02:52:47;5.80;99.90
64396;DHT22;50717;53.360;6.290;2023-02-05T02:55:16;5.90;99.90
64396;DHT22;50717;53.360;6.290;2023-02-05T02:57:44;5.60;99.90
64396;DHT22;50717;53.360;6.290;2023-02-05T03:00:17;5.50;99.90
64396;DHT22;50717;53.360;6.290;2023-02-05T03:02:45;6.10;99.90
64396;DHT22;50717;53.360;6.290;2023-02-05T03:05:16;5.80;99.90
64396;DHT22;50717;53.360;6.290;2023-02-05T03:07:50;5.40;99.90
64396;DHT22;50717;53.360;6.290;2023-02-05T03:10:44;6.20;99.90
64396;DHT22;50717;53.360;6.290;2023-02-05T03:13:11;5.60;99.90
64396;DHT22;50717;53.360;6.290;2023-02-05T03:15:39;5.60;99.90
64396;DHT22;50717;53.360;6.290;2023-02-05T03:18:06;5.70;99.90
64396;DHT22;50717;53.360;6.290;2023-02-05T03:20:44;6.10;99.90
64396;DHT22;50717;53.360;6.290;2023-02-05T03:23:10;6.20;99.90
64396;DHT22;50717;53.360;6.290;2023-02-05T03:25:36;6.50;99.90
64396;DHT22;50717;53.360;6.290;2023-02-05T03:28:01;6.10;99.90
64396;DHT22;50717;53.360;6.290;2023-02-05T03:35:51;6.60;99.90
64396;DHT22;50717;53.360;6.290;2023-02-05T03:40:58;5.90;99.90
64396;DHT22;50717;53.360;6.290;2023-02-05T03:43:55;5.80;99.90
64396;DHT22;50717;53.360;6.290;2023-02-05T03:54:02;5.90;99.90
64396;DHT22;50717;53.360;6.290;2023-02-05T03:58:58;6.70;99.90
64396;DHT22;50717;53.360;6.290;2023-02-05T04:01:25;6.90;99.90
64396;DHT22;50717;53.360;6.290;2023-02-05T04:03:52;6.30;99.90
64396;DHT22;50717;53.360;6.290;2023-02-05T04:06:17;6.00;99.90
64396;DHT22;50717;53.360;6.290;2023-02-05T04:08:43;5.70;99.90
64396;DHT22;50717;53.360;6.290;2023-02-05T04:11:09;6.90;99.90
64396;DHT22;50717;53.360;6.290;2023-02-05T04:13:35;6.00;99.90
64396;DHT22;50717;53.360;6.290;2023-02-05T04:16:01;7.20;99.90
64396;DHT22;50717;53.360;6.290;2023-02-05T04:18:27;6.80;99.90
64396;DHT22;50717;53.360;6.290;2023-02-05T04:20:52;6.60;99.90
64396;DHT22;50717;53.360;6.290;2023-02-05T04:23:18;5.90;99.90
64396;DHT22;50717;53.360;6.290;2023-02-05T04:25:44;7.00;99.90
64396;DHT22;50717;53.360;6.290;2023-02-05T04:28:10;6.10;99.90
64396;DHT22;50717;53.360;6.290;2023-02-05T04:30:36;6.40;99.90
64396;DHT22;50717;53.360;6.290;2023-02-05T04:33:02;6.10;99.90
64396;DHT22;50717;53.360;6.290;2023-02-05T04:35:27;6.90;99.90
64396;DHT22;50717;53.360;6.290;2023-02-05T04:37:53;6.00;99.90
64396;DHT22;50717;53.360;6.290;2023-02-05T04:40:19;6.20;99.90
64396;DHT22;50717;53.360;6.290;2023-02-05T04:42:44;6.70;99.90
64396;DHT22;50717;53.360;6.290;2023-02-05T04:45:10;7.00;99.90
64396;DHT22;50717;53.360;6.290;2023-02-05T04:47:36;6.90;99.90
64396;DHT22;50717;53.360;6.290;2023-02-05T04:50:02;6.20;99.90
64396;DHT22;50717;53.360;6.290;2023-02-05T04:52:28;7.30;99.90
64396;DHT22;50717;53.360;6.290;2023-02-05T04:54:54;6.50;99.90
64396;DHT22;50717;53.360;6.290;2023-02-05T04:57:20;7.30;99.90
64396;DHT22;50717;53.360;6.290;2023-02-05T04:59:46;6.30;99.90
64396;DHT22;50717;53.360;6.290;2023-02-05T05:02:11;6.70;99.90
64396;DHT22;50717;53.360;6.290;2023-02-05T05:04:37;6.60;99.90
64396;DHT22;50717;53.360;6.290;2023-02-05T05:07:03;6.00;99.90
64396;DHT22;50717;53.360;6.290;2023-02-05T05:09:29;6.00;99.90
64396;DHT22;50717;53.360;6.290;2023-02-05T05:11:54;6.50;99.90
64396;DHT22;50717;53.360;6.290;2023-02-05T05:14:21;6.10;99.90
64396;DHT22;50717;53.360;6.290;2023-02-05T05:16:48;6.30;99.90
64396;DHT22;50717;53.360;6.290;2023-02-05T05:19:14;5.90;99.90
64396;DHT22;50717;53.360;6.290;2023-02-05T05:21:40;6.40;99.90
64396;DHT22;50717;53.360;6.290;2023-02-05T05:24:06;6.00;99.90
64396;DHT22;50717;53.360;6.290;2023-02-05T05:26:32;6.60;99.90
64396;DHT22;50717;53.360;6.290;2023-02-05T05:28:58;5.90;99.90
64396;DHT22;50717;53.360;6.290;2023-02-05T05:31:23;5.80;99.90
64396;DHT22;50717;53.360;6.290;2023-02-05T05:33:50;5.70;99.90
64396;DHT22;50717;53.360;6.290;2023-02-05T05:36:16;6.10;99.90
64396;DHT22;50717;53.360;6.290;2023-02-05T05:38:42;5.70;99.90
64396;DHT22;50717;53.360;6.290;2023-02-05T05:43:55;5.60;99.90
64396;DHT22;50717;53.360;6.290;2023-02-05T05:46:25;6.10;99.90
64396;DHT22;50717;53.360;6.290;2023-02-05T05:48:53;6.60;99.90
64396;DHT22;50717;53.360;6.290;2023-02-05T05:51:20;6.20;99.90
64396;DHT22;50717;53.360;6.290;2023-02-05T05:53:46;5.70;99.90
64396;DHT22;50717;53.360;6.290;2023-02-05T05:56:13;6.00;99.90
64396;DHT22;50717;53.360;6.290;2023-02-05T05:58:39;6.00;99.90
64396;DHT22;50717;53.360;6.290;2023-02-05T06:03:32;6.20;99.90
64396;DHT22;50717;53.360;6.290;2023-02-05T06:06:01;6.40;99.90
64396;DHT22;50717;53.360;6.290;2023-02-05T06:08:27;6.10;99.90
64396;DHT22;50717;53.360;6.290;2023-02-05T06:10:53;6.10;99.90
64396;DHT22;50717;53.360;6.290;2023-02-05T06:13:19;6.10;99.90
64396;DHT22;50717;53.360;6.290;2023-02-05T06:18:13;6.00;99.90
64396;DHT22;50717;53.360;6.290;2023-02-05T06:20:39;6.50;99.90
64396;DHT22;50717;53.360;6.290;2023-02-05T06:23:05;6.50;99.90
64396;DHT22;50717;53.360;6.290;2023-02-05T06:25:30;6.40;99.90
64396;DHT22;50717;53.360;6.290;2023-02-05T06:27:56;6.20;99.90
64396;DHT22;50717;53.360;6.290;2023-02-05T06:30:22;6.20;99.90
64396;DHT22;50717;53.360;6.290;2023-02-05T06:32:48;6.30;99.90
64396;DHT22;50717;53.360;6.290;2023-02-05T06:35:14;6.30;99.90
64396;DHT22;50717;53.360;6.290;2023-02-05T06:37:40;6.50;99.90
64396;DHT22;50717;53.360;6.290;2023-02-05T06:42:31;6.30;99.90
64396;DHT22;50717;53.360;6.290;2023-02-05T06:44:57;6.40;99.90
64396;DHT22;50717;53.360;6.290;2023-02-05T06:47:23;5.80;99.90
64396;DHT22;50717;53.360;6.290;2023-02-05T06:49:48;6.20;99.90
64396;DHT22;50717;53.360;6.290;2023-02-05T06:52:14;6.40;99.90
64396;DHT22;50717;53.360;6.290;2023-02-05T06:54:41;6.80;99.90
64396;DHT22;50717;53.360;6.290;2023-02-05T06:57:08;6.50;99.90
64396;DHT22;50717;53.360;6.290;2023-02-05T06:59:33;6.00;99.90
64396;DHT22;50717;53.360;6.290;2023-02-05T07:04:25;6.50;99.90
64396;DHT22;50717;53.360;6.290;2023-02-05T07:06:53;5.90;99.90
64396;DHT22;50717;53.360;6.290;2023-02-05T07:09:20;6.70;99.90
64396;DHT22;50717;53.360;6.290;2023-02-05T07:11:45;6.00;99.90
64396;DHT22;50717;53.360;6.290;2023-02-05T07:14:11;6.50;99.90
64396;DHT22;50717;53.360;6.290;2023-02-05T07:16:36;6.40;99.90
64396;DHT22;50717;53.360;6.290;2023-02-05T07:19:02;6.50;99.90
64396;DHT22;50717;53.360;6.290;2023-02-05T07:23:54;6.70;99.90
64396;DHT22;50717;53.360;6.290;2023-02-05T07:26:20;6.70;99.90
64396;DHT22;50717;53.360;6.290;2023-02-05T07:31:14;6.70;99.90
64396;DHT22;50717;53.360;6.290;2023-02-05T07:33:42;7.00;99.90
64396;DHT22;50717;53.360;6.290;2023-02-05T07:36:09;7.00;99.90
64396;DHT22;50717;53.360;6.290;2023-02-05T07:38:36;6.80;99.90
64396;DHT22;50717;53.360;6.290;2023-02-05T07:41:02;6.70;99.90
64396;DHT22;50717;53.360;6.290;2023-02-05T07:43:28;6.80;99.90
64396;DHT22;50717;53.360;6.290;2023-02-05T07:45:59;7.00;99.90
64396;DHT22;50717;53.360;6.290;2023-02-05T07:50:51;7.00;99.90
64396;DHT22;50717;53.360;6.290;2023-02-05T07:53:18;6.90;99.90
64396;DHT22;50717;53.360;6.290;2023-02-05T07:55:44;6.90;99.90
64396;DHT22;50717;53.360;6.290;2023-02-05T07:58:10;7.00;99.90
64396;DHT22;50717;53.360;6.290;2023-02-05T08:00:36;6.80;99.90
64396;DHT22;50717;53.360;6.290;2023-02-05T08:03:02;7.00;99.90
64396;DHT22;50717;53.360;6.290;2023-02-05T08:05:27;6.90;99.90
64396;DHT22;50717;53.360;6.290;2023-02-05T08:07:53;6.90;99.90
64396;DHT22;50717;53.360;6.290;2023-02-05T08:10:19;6.90;99.90
64396;DHT22;50717;53.360;6.290;2023-02-05T08:12:45;6.90;99.90
64396;DHT22;50717;53.360;6.290;2023-02-05T08:15:10;6.70;99.90
64396;DHT22;50717;53.360;6.290;2023-02-05T08:17:36;6.60;99.90
64396;DHT22;50717;53.360;6.290;2023-02-05T08:20:03;6.80;99.90
64396;DHT22;50717;53.360;6.290;2023-02-05T08:22:37;7.10;99.90
64396;DHT22;50717;53.360;6.290;2023-02-05T08:25:04;6.80;99.90
64396;DHT22;50717;53.360;6.290;2023-02-05T08:27:34;7.00;99.90
64396;DHT22;50717;53.360;6.290;2023-02-05T08:30:02;7.00;99.90
64396;DHT22;50717;53.360;6.290;2023-02-05T08:34:53;6.90;99.90
64396;DHT22;50717;53.360;6.290;2023-02-05T08:37:19;7.10;99.90
64396;DHT22;50717;53.360;6.290;2023-02-05T08:39:45;6.90;99.90
64396;DHT22;50717;53.360;6.290;2023-02-05T08:42:11;6.90;99.90
64396;DHT22;50717;53.360;6.290;2023-02-05T08:44:37;7.10;99.90
64396;DHT22;50717;53.360;6.290;2023-02-05T08:47:03;7.20;99.90
64396;DHT22;50717;53.360;6.290;2023-02-05T08:49:28;7.40;99.90
64396;DHT22;50717;53.360;6.290;2023-02-05T08:51:54;7.00;99.90
64396;DHT22;50717;53.360;6.290;2023-02-05T08:54:20;7.00;99.90
64396;DHT22;50717;53.360;6.290;2023-02-05T08:56:48;7.40;99.90
64396;DHT22;50717;53.360;6.290;2023-02-05T08:59:14;7.50;99.90
64396;DHT22;50717;53.360;6.290;2023-02-05T09:01:41;7.50;99.90
64396;DHT22;50717;53.360;6.290;2023-02-05T09:04:17;7.30;99.90
64396;DHT22;50717;53.360;6.290;2023-02-05T09:06:43;7.30;99.90
64396;DHT22;50717;53.360;6.290;2023-02-05T09:09:10;7.30;99.90
64396;DHT22;50717;53.360;6.290;2023-02-05T09:11:36;7.10;99.90
64396;DHT22;50717;53.360;6.290;2023-02-05T09:14:02;7.60;99.90
64396;DHT22;50717;53.360;6.290;2023-02-05T09:16:27;7.20;99.90
64396;DHT22;50717;53.360;6.290;2023-02-05T09:18:54;7.20;99.90
64396;DHT22;50717;53.360;6.290;2023-02-05T09:23:46;7.50;99.90
64396;DHT22;50717;53.360;6.290;2023-02-05T09:26:12;7.50;99.90
64396;DHT22;50717;53.360;6.290;2023-02-05T09:28:38;7.50;99.90
64396;DHT22;50717;53.360;6.290;2023-02-05T09:31:06;7.40;99.90
64396;DHT22;50717;53.360;6.290;2023-02-05T09:33:33;7.30;99.90
64396;DHT22;50717;53.360;6.290;2023-02-05T09:38:30;7.50;99.90
64396;DHT22;50717;53.360;6.290;2023-02-05T09:41:00;7.70;99.90
64396;DHT22;50717;53.360;6.290;2023-02-05T09:54:27;7.90;99.90
64396;DHT22;50717;53.360;6.290;2023-02-05T09:56:58;7.70;99.90
64396;DHT22;50717;53.360;6.290;2023-02-05T09:59:26;7.60;99.90
64396;DHT22;50717;53.360;6.290;2023-02-05T10:01:58;7.80;99.90
64396;DHT22;50717;53.360;6.290;2023-02-05T10:04:25;7.60;99.90
64396;DHT22;50717;53.360;6.290;2023-02-05T10:14:47;8.00;99.90
64396;DHT22;50717;53.360;6.290;2023-02-05T10:25:33;6.90;99.90
64396;DHT22;50717;53.360;6.290;2023-02-05T10:33:53;7.50;99.90
64396;DHT22;50717;53.360;6.290;2023-02-05T10:36:24;7.60;99.90
64396;DHT22;50717;53.360;6.290;2023-02-05T10:38:53;7.40;99.90
64396;DHT22;50717;53.360;6.290;2023-02-05T10:41:38;7.50;99.90
64396;DHT22;50717;53.360;6.290;2023-02-05T10:46:51;7.40;99.90
64396;DHT22;50717;53.360;6.290;2023-02-05T10:49:37;7.40;99.90
64396;DHT22;50717;53.360;6.290;2023-02-05T10:52:06;7.40;99.90
64396;DHT22;50717;53.360;6.290;2023-02-05T10:54:34;7.60;99.90
64396;DHT22;50717;53.360;6.290;2023-02-05T10:57:00;8.20;99.90
64396;DHT22;50717;53.360;6.290;2023-02-05T10:59:46;8.20;99.90
64396;DHT22;50717;53.360;6.290;2023-02-05T11:02:14;8.10;99.90
64396;DHT22;50717;53.360;6.290;2023-02-05T11:05:01;7.90;99.90
64396;DHT22;50717;53.360;6.290;2023-02-05T11:07:48;8.00;99.90
64396;DHT22;50717;53.360;6.290;2023-02-05T11:10:25;8.30;99.90
64396;DHT22;50717;53.360;6.290;2023-02-05T11:13:16;8.00;99.90
64396;DHT22;50717;53.360;6.290;2023-02-05T11:16:12;8.20;99.90
64396;DHT22;50717;53.360;6.290;2023-02-05T11:18:39;8.40;99.90
64396;DHT22;50717;53.360;6.290;2023-02-05T11:21:08;8.10;99.90
64396;DHT22;50717;53.360;6.290;2023-02-05T11:23:35;7.90;99.90
64396;DHT22;50717;53.360;6.290;2023-02-05T11:26:15;8.00;99.90
64396;DHT22;50717;53.360;6.290;2023-02-05T11:28:42;8.10;99.90
64396;DHT22;50717;53.360;6.290;2023-02-05T11:33:50;7.90;99.90
64396;DHT22;50717;53.360;6.290;2023-02-05T11:36:22;8.30;99.90
64396;DHT22;50717;53.360;6.290;2023-02-05T11:38:51;8.50;99.90
64396;DHT22;50717;53.360;6.290;2023-02-05T11:41:32;8.20;99.90
64396;DHT22;50717;53.360;6.290;2023-02-05T11:46:43;8.60;99.90
64396;DHT22;50717;53.360;6.290;2023-02-05T11:49:19;8.40;99.90
64396;DHT22;50717;53.360;6.290;2023-02-05T11:51:48;8.90;99.90
64396;DHT22;50717;53.360;6.290;2023-02-05T11:54:30;8.40;99.90
64396;DHT22;50717;53.360;6.290;2023-02-05T12:00:00;8.30;99.90
64396;DHT22;50717;53.360;6.290;2023-02-05T12:02:30;8.50;99.90
64396;DHT22;50717;53.360;6.290;2023-02-05T12:05:17;8.30;99.90
64396;DHT22;50717;53.360;6.290;2023-02-05T12:16:24;8.50;99.90
64396;DHT22;50717;53.360;6.290;2023-02-05T12:19:04;8.40;99.90
64396;DHT22;50717;53.360;6.290;2023-02-05T12:27:25;8.80;99.90
64396;DHT22;50717;53.360;6.290;2023-02-05T12:35:22;8.60;99.90
64396;DHT22;50717;53.360;6.290;2023-02-05T12:37:56;8.70;99.90
64396;DHT22;50717;53.360;6.290;2023-02-05T12:43:36;8.80;99.90
64396;DHT22;50717;53.360;6.290;2023-02-05T12:57:23;8.50;99.90
64396;DHT22;50717;53.360;6.290;2023-02-05T13:00:01;8.80;99.90
64396;DHT22;50717;53.360;6.290;2023-02-05T13:10:23;8.80;99.90
64396;DHT22;50717;53.360;6.290;2023-02-05T13:12:52;8.90;99.90
64396;DHT22;50717;53.360;6.290;2023-02-05T13:15:24;8.70;99.90
64396;DHT22;50717;53.360;6.290;2023-02-05T13:17:59;9.10;99.90
64396;DHT22;50717;53.360;6.290;2023-02-05T13:20:39;8.90;99.90
64396;DHT22;50717;53.360;6.290;2023-02-05T13:23:24;9.00;99.90
64396;DHT22;50717;53.360;6.290;2023-02-05T13:26:10;8.90;99.90
64396;DHT22;50717;53.360;6.290;2023-02-05T13:29:10;9.00;99.90
64396;DHT22;50717;53.360;6.290;2023-02-05T13:32:12;9.00;99.90
64396;DHT22;50717;53.360;6.290;2023-02-05T13:34:30;9.00;99.90
64396;DHT22;50717;53.360;6.290;2023-02-05T13:47:43;9.10;99.90
64396;DHT22;50717;53.360;6.290;2023-02-05T13:56:17;8.80;99.90
64396;DHT22;50717;53.360;6.290;2023-02-05T13:59:03;9.10;99.90
64396;DHT22;50717;53.360;6.290;2023-02-05T14:01:51;9.30;99.90
64396;DHT22;50717;53.360;6.290;2023-02-05T14:07:03;8.30;99.90
64396;DHT22;50717;53.360;6.290;2023-02-05T14:09:42;8.60;99.90
64396;DHT22;50717;53.360;6.290;2023-02-05T14:12:33;8.20;99.90
64396;DHT22;50717;53.360;6.290;2023-02-05T14:22:51;8.30;99.90
64396;DHT22;50717;53.360;6.290;2023-02-05T14:30:50;8.10;99.90
64396;DHT22;50717;53.360;6.290;2023-02-05T14:35:53;8.00;99.90
64396;DHT22;50717;53.360;6.290;2023-02-05T14:38:23;7.60;99.90
64396;DHT22;50717;53.360;6.290;2023-02-05T14:43:32;7.70;99.90
64396;DHT22;50717;53.360;6.290;2023-02-05T14:46:19;7.90;99.90
64396;DHT22;50717;53.360;6.290;2023-02-05T14:48:46;7.70;99.90
64396;DHT22;50717;53.360;6.290;2023-02-05T14:51:38;7.80;99.90
64396;DHT22;50717;53.360;6.290;2023-02-05T14:54:17;7.70;99.90
64396;DHT22;50717;53.360;6.290;2023-02-05T14:56:49;7.90;99.90
64396;DHT22;50717;53.360;6.290;2023-02-05T15:01:57;8.00;99.90
64396;DHT22;50717;53.360;6.290;2023-02-05T15:07:01;7.60;99.90
64396;DHT22;50717;53.360;6.290;2023-02-05T15:17:52;7.60;99.90
64396;DHT22;50717;53.360;6.290;2023-02-05T15:27:54;7.60;99.90
64396;DHT22;50717;53.360;6.290;2023-02-05T15:30:24;7.50;99.90
64396;DHT22;50717;53.360;6.290;2023-02-05T15:33:06;7.20;99.90
64396;DHT22;50717;53.360;6.290;2023-02-05T15:35:33;7.60;99.90
64396;DHT22;50717;53.360;6.290;2023-02-05T15:38:24;7.60;99.90
64396;DHT22;50717;53.360;6.290;2023-02-05T15:40:51;6.90;99.90
64396;DHT22;50717;53.360;6.290;2023-02-05T15:43:23;7.50;99.90
64396;DHT22;50717;53.360;6.290;2023-02-05T15:45:51;7.10;99.90
64396;DHT22;50717;53.360;6.290;2023-02-05T15:48:24;7.20;99.90
64396;DHT22;50717;53.360;6.290;2023-02-05T15:50:53;7.50;99.90
64396;DHT22;50717;53.360;6.290;2023-02-05T15:53:34;6.80;99.90
64396;DHT22;50717;53.360;6.290;2023-02-05T15:58:54;6.80;99.90
64396;DHT22;50717;53.360;6.290;2023-02-05T16:03:51;6.90;99.90
64396;DHT22;50717;53.360;6.290;2023-02-05T16:06:19;7.40;99.90
64396;DHT22;50717;53.360;6.290;2023-02-05T16:08:46;7.00;99.90
64396;DHT22;50717;53.360;6.290;2023-02-05T16:11:34;6.80;99.90
64396;DHT22;50717;53.360;6.290;2023-02-05T16:14:04;6.80;99.90
64396;DHT22;50717;53.360;6.290;2023-02-05T16:16:30;6.90;99.90
64396;DHT22;50717;53.360;6.290;2023-02-05T16:19:00;6.80;99.90
64396;DHT22;50717;53.360;6.290;2023-02-05T16:21:31;7.00;99.90
64396;DHT22;50717;53.360;6.290;2023-02-05T16:29:02;6.60;99.90
64396;DHT22;50717;53.360;6.290;2023-02-05T16:34:01;6.60;99.90
64396;DHT22;50717;53.360;6.290;2023-02-05T16:36:33;6.60;99.90
64396;DHT22;50717;53.360;6.290;2023-02-05T16:39:03;6.70;99.90
64396;DHT22;50717;53.360;6.290;2023-02-05T16:41:36;6.40;99.90
64396;DHT22;50717;53.360;6.290;2023-02-05T16:46:34;6.80;99.90
64396;DHT22;50717;53.360;6.290;2023-02-05T16:49:03;6.40;99.90
64396;DHT22;50717;53.360;6.290;2023-02-05T16:57:06;6.60;99.90
64396;DHT22;50717;53.360;6.290;2023-02-05T17:04:50;6.30;99.90
64396;DHT22;50717;53.360;6.290;2023-02-05T17:07:20;6.30;99.90
64396;DHT22;50717;53.360;6.290;2023-02-05T17:09:46;6.90;99.90
64396;DHT22;50717;53.360;6.290;2023-02-05T17:14:56;6.50;99.90
64396;DHT22;50717;53.360;6.290;2023-02-05T17:17:24;6.30;99.90
64396;DHT22;50717;53.360;6.290;2023-02-05T17:22:34;6.20;99.90
64396;DHT22;50717;53.360;6.290;2023-02-05T17:29:58;6.00;99.90
64396;DHT22;50717;53.360;6.290;2023-02-05T17:34:50;6.10;99.90
64396;DHT22;50717;53.360;6.290;2023-02-05T17:37:16;6.10;99.90
64396;DHT22;50717;53.360;6.290;2023-02-05T17:39:42;6.30;99.90
64396;DHT22;50717;53.360;6.290;2023-02-05T17:42:22;6.10;99.90
64396;DHT22;50717;53.360;6.290;2023-02-05T17:44:49;6.20;99.90
64396;DHT22;50717;53.360;6.290;2023-02-05T17:47:15;6.10;99.90
64396;DHT22;50717;53.360;6.290;2023-02-05T17:49:41;6.30;99.90
64396;DHT22;50717;53.360;6.290;2023-02-05T17:52:07;6.30;99.90
64396;DHT22;50717;53.360;6.290;2023-02-05T17:54:33;6.30;99.90
64396;DHT22;50717;53.360;6.290;2023-02-05T17:57:13;6.20;99.90
64396;DHT22;50717;53.360;6.290;2023-02-05T17:59:41;6.40;99.90
64396;DHT22;50717;53.360;6.290;2023-02-05T18:02:12;6.20;99.90
64396;DHT22;50717;53.360;6.290;2023-02-05T18:04:38;6.20;99.90
64396;DHT22;50717;53.360;6.290;2023-02-05T18:07:14;6.20;99.90
64396;DHT22;50717;53.360;6.290;2023-02-05T18:09:41;6.30;99.90
64396;DHT22;50717;53.360;6.290;2023-02-05T18:16:59;6.20;99.90
64396;DHT22;50717;53.360;6.290;2023-02-05T18:21:53;6.10;99.90
64396;DHT22;50717;53.360;6.290;2023-02-05T18:24:19;5.90;99.90
64396;DHT22;50717;53.360;6.290;2023-02-05T18:26:45;5.60;99.90
64396;DHT22;50717;53.360;6.290;2023-02-05T18:29:13;5.50;99.90
64396;DHT22;50717;53.360;6.290;2023-02-05T18:31:38;5.80;99.90
64396;DHT22;50717;53.360;6.290;2023-02-05T18:34:04;5.90;99.90
64396;DHT22;50717;53.360;6.290;2023-02-05T18:36:31;5.70;99.90
64396;DHT22;50717;53.360;6.290;2023-02-05T18:38:56;5.70;99.90
64396;DHT22;50717;53.360;6.290;2023-02-05T18:46:21;5.60;99.90
64396;DHT22;50717;53.360;6.290;2023-02-05T18:51:19;5.90;99.90
64396;DHT22;50717;53.360;6.290;2023-02-05T18:53:45;5.70;99.90
64396;DHT22;50717;53.360;6.290;2023-02-05T18:58:51;6.00;99.90
64396;DHT22;50717;53.360;6.290;2023-02-05T19:01:17;5.60;99.90
64396;DHT22;50717;53.360;6.290;2023-02-05T19:03:43;5.90;99.90
64396;DHT22;50717;53.360;6.290;2023-02-05T19:08:37;5.30;99.90
64396;DHT22;50717;53.360;6.290;2023-02-05T19:11:14;5.40;99.90
64396;DHT22;50717;53.360;6.290;2023-02-05T19:13:41;5.30;99.90
64396;DHT22;50717;53.360;6.290;2023-02-05T19:16:12;5.60;99.90
64396;DHT22;50717;53.360;6.290;2023-02-05T19:21:07;5.40;99.90
64396;DHT22;50717;53.360;6.290;2023-02-05T19:28:26;5.40;99.90
64396;DHT22;50717;53.360;6.290;2023-02-05T19:30:51;5.40;99.90
64396;DHT22;50717;53.360;6.290;2023-02-05T19:33:17;5.50;99.90
64396;DHT22;50717;53.360;6.290;2023-02-05T19:35:42;5.50;99.90
64396;DHT22;50717;53.360;6.290;2023-02-05T19:38:08;5.60;99.90
64396;DHT22;50717;53.360;6.290;2023-02-05T19:40:34;5.50;99.90
64396;DHT22;50717;53.360;6.290;2023-02-05T19:45:26;5.50;99.90
64396;DHT22;50717;53.360;6.290;2023-02-05T19:47:51;5.80;99.90
64396;DHT22;50717;53.360;6.290;2023-02-05T19:50:17;5.50;99.90
64396;DHT22;50717;53.360;6.290;2023-02-05T19:52:42;5.60;99.90
64396;DHT22;50717;53.360;6.290;2023-02-05T19:55:08;5.60;99.90
64396;DHT22;50717;53.360;6.290;2023-02-05T19:57:34;5.40;99.90
64396;DHT22;50717;53.360;6.290;2023-02-05T20:00:00;5.00;99.90
64396;DHT22;50717;53.360;6.290;2023-02-05T20:02:25;5.30;99.90
64396;DHT22;50717;53.360;6.290;2023-02-05T20:04:52;5.40;99.90
64396;DHT22;50717;53.360;6.290;2023-02-05T20:07:18;5.30;99.90
64396;DHT22;50717;53.360;6.290;2023-02-05T20:09:43;5.40;99.90
64396;DHT22;50717;53.360;6.290;2023-02-05T20:14:35;5.60;99.90
64396;DHT22;50717;53.360;6.290;2023-02-05T20:19:27;5.30;99.90
64396;DHT22;50717;53.360;6.290;2023-02-05T20:21:53;5.60;99.90
64396;DHT22;50717;53.360;6.290;2023-02-05T20:24:19;5.50;99.90
64396;DHT22;50717;53.360;6.290;2023-02-05T20:26:45;5.60;99.90
64396;DHT22;50717;53.360;6.290;2023-02-05T20:29:14;5.50;99.90